sensor_id;sensor_type;location;lat;lon;timestamp;pressure;altitude;pressure_sealevel;temperature;humidity
52535;BME280;38443;53.164;5.802;2023-07-30T00:01:29;100869.28;;;15.50;100.00
52535;BME280;38443;53.164;5.802;2023-07-30T00:03:54;100868.47;;;15.48;100.00
52535;BME280;38443;53.164;5.802;2023-07-30T00:06:20;100871.19;;;15.48;100.00
52535;BME280;38443;53.164;5.802;2023-07-30T00:08:45;100865.91;;;15.45;100.00
52535;BME280;38443;53.164;5.802;2023-07-30T00:11:10;100871.31;;;15.45;100.00
52535;BME280;38443;53.164;5.802;2023-07-30T00:13:36;100874.09;;;15.43;100.00
52535;BME280;38443;53.164;5.802;2023-07-30T00:16:01;100870.53;;;15.43;100.00
52535;BME280;38443;53.164;5.802;2023-07-30T00:18:26;100872.34;;;15.42;100.00
52535;BME280;38443;53.164;5.802;2023-07-30T00:20:52;100872.34;;;15.42;100.00
52535;BME280;38443;53.164;5.802;2023-07-30T00:23:17;100869.72;;;15.41;100.00
52535;BME280;38443;53.164;5.802;2023-07-30T00:25:42;100872.34;;;15.42;100.00
52535;BME280;38443;53.164;5.802;2023-07-30T00:28:08;100874.19;;;15.42;100.00
52535;BME280;38443;53.164;5.802;2023-07-30T00:30:33;100874.19;;;15.42;100.00
52535;BME280;38443;53.164;5.802;2023-07-30T00:32:58;100874.19;;;15.42;100.00
52535;BME280;38443;53.164;5.802;2023-07-30T00:35:24;100874.09;;;15.43;100.00
52535;BME280;38443;53.164;5.802;2023-07-30T00:37:49;100879.47;;;15.43;100.00
52535;BME280;38443;53.164;5.802;2023-07-30T00:40:14;100883.78;;;15.47;100.00
52535;BME280;38443;53.164;5.802;2023-07-30T00:42:40;100883.88;;;15.46;100.00
52535;BME280;38443;53.164;5.802;2023-07-30T00:45:06;100872.13;;;15.47;100.00
52535;BME280;38443;53.164;5.802;2023-07-30T00:47:31;100878.25;;;15.50;100.00
52535;BME280;38443;53.164;5.802;2023-07-30T00:49:57;100893.56;;;15.50;100.00
52535;BME280;38443;53.164;5.802;2023-07-30T00:52:23;100886.16;;;15.53;100.00
52535;BME280;38443;53.164;5.802;2023-07-30T00:54:51;100887.78;;;15.58;100.00
52535;BME280;38443;53.164;5.802;2023-07-30T00:57:18;100886.75;;;15.60;100.00
52535;BME280;38443;53.164;5.802;2023-07-30T00:59:45;100890.19;;;15.64;100.00
52535;BME280;38443;53.164;5.802;2023-07-30T01:02:11;100894.63;;;15.65;100.00
52535;BME280;38443;53.164;5.802;2023-07-30T01:04:37;100896.38;;;15.66;100.00
52535;BME280;38443;53.164;5.802;2023-07-30T01:07:05;100886.38;;;15.68;100.00
52535;BME280;38443;53.164;5.802;2023-07-30T01:09:31;100889.78;;;15.71;100.00
52535;BME280;38443;53.164;5.802;2023-07-30T01:11:57;100886.03;;;15.75;100.00
52535;BME280;38443;53.164;5.802;2023-07-30T01:14:24;100892.13;;;15.79;100.00
52535;BME280;38443;53.164;5.802;2023-07-30T01:16:51;100891.03;;;15.83;100.00
52535;BME280;38443;53.164;5.802;2023-07-30T01:19:16;100900.72;;;15.87;100.00
52535;BME280;38443;53.164;5.802;2023-07-30T01:21:42;100897.00;;;15.90;100.00
52535;BME280;38443;53.164;5.802;2023-07-30T01:24:07;100898.66;;;15.92;100.00
52535;BME280;38443;53.164;5.802;2023-07-30T01:26:48;100894.84;;;15.97;100.00
52535;BME280;38443;53.164;5.802;2023-07-30T01:29:28;100892.94;;;15.99;100.00
52535;BME280;38443;53.164;5.802;2023-07-30T01:32:02;100898.50;;;15.95;100.00
52535;BME280;38443;53.164;5.802;2023-07-30T01:34:30;100894.13;;;15.93;100.00
52535;BME280;38443;53.164;5.802;2023-07-30T01:37:00;100893.41;;;15.89;100.00
52535;BME280;38443;53.164;5.802;2023-07-30T01:39:27;100901.59;;;15.88;100.00
52535;BME280;38443;53.164;5.802;2023-07-30T01:41:53;100892.78;;;15.84;100.00
52535;BME280;38443;53.164;5.802;2023-07-30T01:44:19;100899.22;;;15.82;100.00
52535;BME280;38443;53.164;5.802;2023-07-30T01:46:45;100902.91;;;15.79;100.00
52535;BME280;38443;53.164;5.802;2023-07-30T01:49:10;100896.66;;;15.79;100.00
52535;BME280;38443;53.164;5.802;2023-07-30T01:51:35;100902.13;;;15.77;100.00
52535;BME280;38443;53.164;5.802;2023-07-30T01:54:01;100904.09;;;15.73;100.00
52535;BME280;38443;53.164;5.802;2023-07-30T01:56:26;100901.47;;;15.72;100.00
52535;BME280;38443;53.164;5.802;2023-07-30T01:58:51;100904.38;;;15.67;100.00
52535;BME280;38443;53.164;5.802;2023-07-30T02:01:17;100900.81;;;15.67;100.00
52535;BME280;38443;53.164;5.802;2023-07-30T02:03:42;100903.56;;;15.65;100.00
52535;BME280;38443;53.164;5.802;2023-07-30T02:06:07;100894.69;;;15.63;100.00
52535;BME280;38443;53.164;5.802;2023-07-30T02:08:33;100900.19;;;15.62;100.00
52535;BME280;38443;53.164;5.802;2023-07-30T02:10:59;100898.34;;;15.62;100.00
52535;BME280;38443;53.164;5.802;2023-07-30T02:13:25;100893.03;;;15.61;100.00
52535;BME280;38443;53.164;5.802;2023-07-30T02:15:51;100894.06;;;15.58;100.00
52535;BME280;38443;53.164;5.802;2023-07-30T02:18:16;100895.09;;;15.55;100.00
52535;BME280;38443;53.164;5.802;2023-07-30T02:20:42;100892.38;;;15.55;100.00
52535;BME280;38443;53.164;5.802;2023-07-30T02:23:07;100882.53;;;15.54;100.00
52535;BME280;38443;53.164;5.802;2023-07-30T02:25:33;100895.22;;;15.52;100.00
52535;BME280;38443;53.164;5.802;2023-07-30T02:27:59;100899.03;;;15.48;100.00
52535;BME280;38443;53.164;5.802;2023-07-30T02:30:26;100887.50;;;15.45;100.00
52535;BME280;38443;53.164;5.802;2023-07-30T02:32:51;100886.78;;;15.41;100.00
52535;BME280;38443;53.164;5.802;2023-07-30T02:35:16;100884.31;;;15.36;100.00
52535;BME280;38443;53.164;5.802;2023-07-30T02:37:42;100872.66;;;15.36;100.00
52535;BME280;38443;53.164;5.802;2023-07-30T02:40:08;100884.38;;;15.35;100.00
52535;BME280;38443;53.164;5.802;2023-07-30T02:42:33;100889.78;;;15.35;100.00
52535;BME280;38443;53.164;5.802;2023-07-30T02:44:58;100887.16;;;15.33;100.00
52535;BME280;38443;53.164;5.802;2023-07-30T02:47:24;100889.88;;;15.33;100.00
52535;BME280;38443;53.164;5.802;2023-07-30T02:49:49;100887.31;;;15.30;100.00
52535;BME280;38443;53.164;5.802;2023-07-30T02:52:14;100891.97;;;15.27;100.00
52535;BME280;38443;53.164;5.802;2023-07-30T02:54:40;100888.41;;;15.26;100.00
52535;BME280;38443;53.164;5.802;2023-07-30T02:57:05;100886.75;;;15.24;100.00
52535;BME280;38443;53.164;5.802;2023-07-30T02:59:30;100885.03;;;15.21;100.00
52535;BME280;38443;53.164;5.802;2023-07-30T03:01:56;100887.84;;;15.20;100.00
52535;BME280;38443;53.164;5.802;2023-07-30T03:04:21;100886.13;;;15.17;100.00
52535;BME280;38443;53.164;5.802;2023-07-30T03:06:46;100885.34;;;15.15;100.00
52535;BME280;38443;53.164;5.802;2023-07-30T03:09:12;100882.75;;;15.13;100.00
52535;BME280;38443;53.164;5.802;2023-07-30T03:11:37;100883.72;;;15.11;100.00
52535;BME280;38443;53.164;5.802;2023-07-30T03:14:02;100889.19;;;15.09;100.00
52535;BME280;38443;53.164;5.802;2023-07-30T03:16:28;100884.88;;;15.05;100.00
52535;BME280;38443;53.164;5.802;2023-07-30T03:18:53;100886.78;;;15.03;100.00
52535;BME280;38443;53.164;5.802;2023-07-30T03:21:18;100890.50;;;15.01;100.00
52535;BME280;38443;53.164;5.802;2023-07-30T03:23:44;100894.16;;;15.00;100.00
52535;BME280;38443;53.164;5.802;2023-07-30T03:26:10;100889.78;;;14.97;100.00
52535;BME280;38443;53.164;5.802;2023-07-30T03:28:35;100887.97;;;14.98;100.00
52535;BME280;38443;53.164;5.802;2023-07-30T03:31:01;100886.22;;;14.96;100.00
52535;BME280;38443;53.164;5.802;2023-07-30T03:33:26;100885.28;;;14.98;100.00
52535;BME280;38443;53.164;5.802;2023-07-30T03:35:51;100883.56;;;14.95;100.00
52535;BME280;38443;53.164;5.802;2023-07-30T03:38:17;100882.72;;;14.94;100.00
52535;BME280;38443;53.164;5.802;2023-07-30T03:40:42;100889.88;;;14.95;100.00
52535;BME280;38443;53.164;5.802;2023-07-30T03:43:08;100889.88;;;14.95;100.00
52535;BME280;38443;53.164;5.802;2023-07-30T03:45:33;100885.34;;;14.96;100.00
52535;BME280;38443;53.164;5.802;2023-07-30T03:47:58;100884.47;;;14.95;100.00
52535;BME280;38443;53.164;5.802;2023-07-30T03:50:24;100887.97;;;14.98;100.00
52535;BME280;38443;53.164;5.802;2023-07-30T03:52:49;100879.78;;;14.99;100.00
52535;BME280;38443;53.164;5.802;2023-07-30T03:55:15;100893.28;;;14.99;100.00
52535;BME280;38443;53.164;5.802;2023-07-30T03:57:40;100888.84;;;14.98;100.00
52535;BME280;38443;53.164;5.802;2023-07-30T04:00:06;100886.94;;;15.00;100.00
52535;BME280;38443;53.164;5.802;2023-07-30T04:02:31;100889.56;;;15.02;100.00
52535;BME280;38443;53.164;5.802;2023-07-30T04:04:57;100889.56;;;15.02;100.00
52535;BME280;38443;53.164;5.802;2023-07-30T04:07:23;100889.47;;;15.03;100.00
52535;BME280;38443;53.164;5.802;2023-07-30T04:09:48;100886.72;;;15.05;100.00
52535;BME280;38443;53.164;5.802;2023-07-30T04:12:14;100890.28;;;15.05;100.00
52535;BME280;38443;53.164;5.802;2023-07-30T04:14:39;100892.91;;;15.07;100.00
52535;BME280;38443;53.164;5.802;2023-07-30T04:17:05;100887.53;;;15.07;100.00
52535;BME280;38443;53.164;5.802;2023-07-30T04:19:30;100896.41;;;15.09;100.00
52535;BME280;38443;53.164;5.802;2023-07-30T04:21:55;100889.34;;;15.06;100.00
52535;BME280;38443;53.164;5.802;2023-07-30T04:24:21;100894.81;;;15.05;100.00
52535;BME280;38443;53.164;5.802;2023-07-30T04:26:46;100884.03;;;15.05;100.00
52535;BME280;38443;53.164;5.802;2023-07-30T04:29:12;100887.69;;;15.04;100.00
52535;BME280;38443;53.164;5.802;2023-07-30T04:31:39;100884.88;;;15.05;100.00
52535;BME280;38443;53.164;5.802;2023-07-30T04:34:04;100891.88;;;15.09;100.00
52535;BME280;38443;53.164;5.802;2023-07-30T04:36:30;100893.59;;;15.12;100.00
52535;BME280;38443;53.164;5.802;2023-07-30T04:38:55;100897.09;;;15.14;100.00
52535;BME280;38443;53.164;5.802;2023-07-30T04:41:20;100896.13;;;15.15;100.00
52535;BME280;38443;53.164;5.802;2023-07-30T04:43:46;100895.13;;;15.18;100.00
52535;BME280;38443;53.164;5.802;2023-07-30T04:46:11;100891.41;;;15.20;100.00
52535;BME280;38443;53.164;5.802;2023-07-30T04:48:37;100888.63;;;15.22;100.00
52535;BME280;38443;53.164;5.802;2023-07-30T04:51:02;100894.66;;;15.27;100.00
52535;BME280;38443;53.164;5.802;2023-07-30T04:53:28;100882.78;;;15.31;100.00
52535;BME280;38443;53.164;5.802;2023-07-30T04:55:58;100881.69;;;15.35;100.00
52535;BME280;38443;53.164;5.802;2023-07-30T04:58:24;100889.63;;;15.38;100.00
52535;BME280;38443;53.164;5.802;2023-07-30T05:00:49;100889.56;;;15.40;100.00
52535;BME280;38443;53.164;5.802;2023-07-30T05:03:15;100891.16;;;15.44;100.00
52535;BME280;38443;53.164;5.802;2023-07-30T05:05:41;100881.25;;;15.44;100.00
52535;BME280;38443;53.164;5.802;2023-07-30T05:08:06;100873.94;;;15.46;100.00
52535;BME280;38443;53.164;5.802;2023-07-30T05:10:32;100883.69;;;15.49;100.00
52535;BME280;38443;53.164;5.802;2023-07-30T05:12:57;100882.47;;;15.56;100.00
52535;BME280;38443;53.164;5.802;2023-07-30T05:15:22;100883.25;;;15.58;100.00
52535;BME280;38443;53.164;5.802;2023-07-30T05:17:48;100883.88;;;15.63;100.00
52535;BME280;38443;53.164;5.802;2023-07-30T05:20:13;100890.19;;;15.64;100.00
52535;BME280;38443;53.164;5.802;2023-07-30T05:22:38;100891.03;;;15.64;100.00
52535;BME280;38443;53.164;5.802;2023-07-30T05:25:04;100892.72;;;15.67;100.00
52535;BME280;38443;53.164;5.802;2023-07-30T05:27:30;100889.16;;;15.66;100.00
52535;BME280;38443;53.164;5.802;2023-07-30T05:29:57;100881.91;;;15.67;100.00
52535;BME280;38443;53.164;5.802;2023-07-30T05:32:22;100898.84;;;15.70;100.00
52535;BME280;38443;53.164;5.802;2023-07-30T05:34:47;100890.59;;;15.73;100.00
52535;BME280;38443;53.164;5.802;2023-07-30T05:37:13;100886.91;;;15.76;100.00
52535;BME280;38443;53.164;5.802;2023-07-30T05:39:38;100875.00;;;15.80;100.00
52535;BME280;38443;53.164;5.802;2023-07-30T05:42:04;100882.84;;;15.85;100.00
52535;BME280;38443;53.164;5.802;2023-07-30T05:44:29;100877.22;;;15.89;100.00
52535;BME280;38443;53.164;5.802;2023-07-30T05:46:54;100879.75;;;15.92;100.00
52535;BME280;38443;53.164;5.802;2023-07-30T05:49:20;100884.38;;;15.90;100.00
52535;BME280;38443;53.164;5.802;2023-07-30T05:51:45;100887.94;;;15.91;100.00
52535;BME280;38443;53.164;5.802;2023-07-30T05:54:12;100882.28;;;15.95;100.00
52535;BME280;38443;53.164;5.802;2023-07-30T05:56:37;100882.94;;;16.01;100.00
52535;BME280;38443;53.164;5.802;2023-07-30T05:59:03;100889.78;;;16.08;100.00
52535;BME280;38443;53.164;5.802;2023-07-30T06:01:28;100891.19;;;16.15;100.00
52535;BME280;38443;53.164;5.802;2023-07-30T06:03:53;100885.59;;;16.20;100.00
52535;BME280;38443;53.164;5.802;2023-07-30T06:06:18;100892.00;;;16.17;100.00
52535;BME280;38443;53.164;5.802;2023-07-30T06:08:52;100888.50;;;16.15;100.00
52535;BME280;38443;53.164;5.802;2023-07-30T06:11:17;100882.31;;;16.13;100.00
52535;BME280;38443;53.164;5.802;2023-07-30T06:13:43;100888.44;;;16.17;100.00
52535;BME280;38443;53.164;5.802;2023-07-30T06:16:08;100890.72;;;16.24;100.00
52535;BME280;38443;53.164;5.802;2023-07-30T06:18:34;100894.94;;;16.30;100.00
52535;BME280;38443;53.164;5.802;2023-07-30T06:20:59;100888.25;;;16.37;100.00
52535;BME280;38443;53.164;5.802;2023-07-30T06:23:25;100896.66;;;16.48;100.00
52535;BME280;38443;53.164;5.802;2023-07-30T06:25:50;100887.81;;;16.62;100.00
52535;BME280;38443;53.164;5.802;2023-07-30T06:28:15;100871.81;;;16.75;100.00
52535;BME280;38443;53.164;5.802;2023-07-30T06:30:41;100872.13;;;16.86;100.00
52535;BME280;38443;53.164;5.802;2023-07-30T06:33:06;100879.91;;;16.92;100.00
52535;BME280;38443;53.164;5.802;2023-07-30T06:35:32;100867.31;;;16.91;100.00
52535;BME280;38443;53.164;5.802;2023-07-30T06:37:57;100866.63;;;17.04;100.00
52535;BME280;38443;53.164;5.802;2023-07-30T06:40:22;100866.81;;;17.64;100.00
52535;BME280;38443;53.164;5.802;2023-07-30T06:42:48;100862.16;;;18.57;100.00
52535;BME280;38443;53.164;5.802;2023-07-30T06:45:13;100857.88;;;19.25;100.00
52535;BME280;38443;53.164;5.802;2023-07-30T06:47:39;100846.63;;;19.85;100.00
52535;BME280;38443;53.164;5.802;2023-07-30T06:50:05;100842.34;;;20.21;100.00
52535;BME280;38443;53.164;5.802;2023-07-30T06:52:34;100837.97;;;20.44;100.00
52535;BME280;38443;53.164;5.802;2023-07-30T06:54:59;100839.53;;;20.87;100.00
52535;BME280;38443;53.164;5.802;2023-07-30T06:57:24;100833.78;;;21.16;100.00
52535;BME280;38443;53.164;5.802;2023-07-30T06:59:50;100827.94;;;21.46;100.00
52535;BME280;38443;53.164;5.802;2023-07-30T07:02:15;100828.78;;;21.70;100.00
52535;BME280;38443;53.164;5.802;2023-07-30T07:04:40;100823.66;;;21.90;100.00
52535;BME280;38443;53.164;5.802;2023-07-30T07:07:06;100827.56;;;22.10;100.00
52535;BME280;38443;53.164;5.802;2023-07-30T07:09:31;100832.97;;;21.87;100.00
52535;BME280;38443;53.164;5.802;2023-07-30T07:11:58;100830.41;;;21.25;100.00
52535;BME280;38443;53.164;5.802;2023-07-30T07:14:23;100845.94;;;20.60;100.00
52535;BME280;38443;53.164;5.802;2023-07-30T07:16:49;100837.75;;;20.09;100.00
52535;BME280;38443;53.164;5.802;2023-07-30T07:19:14;100850.41;;;19.83;100.00
52535;BME280;38443;53.164;5.802;2023-07-30T07:21:40;100850.50;;;19.54;100.00
52535;BME280;38443;53.164;5.802;2023-07-30T07:24:05;100857.66;;;19.28;100.00
52535;BME280;38443;53.164;5.802;2023-07-30T07:26:31;100857.03;;;18.96;100.00
52535;BME280;38443;53.164;5.802;2023-07-30T07:28:56;100855.56;;;18.76;100.00
52535;BME280;38443;53.164;5.802;2023-07-30T07:31:21;100869.13;;;18.61;100.00
52535;BME280;38443;53.164;5.802;2023-07-30T07:33:47;100862.81;;;18.46;100.00
52535;BME280;38443;53.164;5.802;2023-07-30T07:36:12;100858.75;;;18.39;100.00
52535;BME280;38443;53.164;5.802;2023-07-30T07:38:39;100867.03;;;18.36;100.00
52535;BME280;38443;53.164;5.802;2023-07-30T07:41:05;100870.66;;;18.37;100.00
52535;BME280;38443;53.164;5.802;2023-07-30T07:43:30;100872.19;;;18.41;100.00
52535;BME280;38443;53.164;5.802;2023-07-30T07:45:55;100869.50;;;18.41;100.00
52535;BME280;38443;53.164;5.802;2023-07-30T07:48:21;100862.22;;;18.41;100.00
52535;BME280;38443;53.164;5.802;2023-07-30T07:50:46;100872.97;;;18.43;100.00
52535;BME280;38443;53.164;5.802;2023-07-30T07:53:11;100883.13;;;18.39;100.00
52535;BME280;38443;53.164;5.802;2023-07-30T07:55:37;100876.06;;;18.37;100.00
52535;BME280;38443;53.164;5.802;2023-07-30T07:58:02;100869.34;;;18.28;100.00
52535;BME280;38443;53.164;5.802;2023-07-30T08:00:27;100880.31;;;18.26;100.00
52535;BME280;38443;53.164;5.802;2023-07-30T08:02:53;100879.41;;;18.26;100.00
52535;BME280;38443;53.164;5.802;2023-07-30T08:05:18;100873.81;;;18.29;100.00
52535;BME280;38443;53.164;5.802;2023-07-30T08:07:48;100872.38;;;18.38;100.00
52535;BME280;38443;53.164;5.802;2023-07-30T08:10:13;100869.19;;;18.31;100.00
52535;BME280;38443;53.164;5.802;2023-07-30T08:12:38;100880.56;;;18.22;100.00
52535;BME280;38443;53.164;5.802;2023-07-30T08:15:04;100884.03;;;18.09;100.00
52535;BME280;38443;53.164;5.802;2023-07-30T08:17:30;100891.41;;;17.91;100.00
52535;BME280;38443;53.164;5.802;2023-07-30T08:19:55;100903.47;;;17.70;100.00
52535;BME280;38443;53.164;5.802;2023-07-30T08:22:20;100896.16;;;17.56;100.00
52535;BME280;38443;53.164;5.802;2023-07-30T08:24:45;100905.78;;;17.30;100.00
52535;BME280;38443;53.164;5.802;2023-07-30T08:27:11;100920.13;;;16.99;100.00
52535;BME280;38443;53.164;5.802;2023-07-30T08:29:36;100915.25;;;16.72;100.00
52535;BME280;38443;53.164;5.802;2023-07-30T08:32:02;100900.63;;;16.41;100.00
52535;BME280;38443;53.164;5.802;2023-07-30T08:34:27;100893.25;;;16.27;100.00
52535;BME280;38443;53.164;5.802;2023-07-30T08:36:52;100903.84;;;16.32;100.00
52535;BME280;38443;53.164;5.802;2023-07-30T08:39:18;100911.13;;;16.47;100.00
52535;BME280;38443;53.164;5.802;2023-07-30T08:41:43;100907.63;;;16.63;100.00
52535;BME280;38443;53.164;5.802;2023-07-30T08:44:09;100901.00;;;16.86;100.00
52535;BME280;38443;53.164;5.802;2023-07-30T08:46:34;100900.44;;;17.12;100.00
52535;BME280;38443;53.164;5.802;2023-07-30T08:49:00;100906.28;;;17.37;100.00
52535;BME280;38443;53.164;5.802;2023-07-30T08:51:26;100903.16;;;17.60;100.00
52535;BME280;38443;53.164;5.802;2023-07-30T08:53:52;100895.09;;;17.74;100.00
52535;BME280;38443;53.164;5.802;2023-07-30T08:56:18;100890.19;;;17.97;100.00
52535;BME280;38443;53.164;5.802;2023-07-30T08:58:44;100899.59;;;18.06;100.00
52535;BME280;38443;53.164;5.802;2023-07-30T09:01:12;100895.56;;;18.13;100.00
52535;BME280;38443;53.164;5.802;2023-07-30T09:03:40;100895.34;;;18.16;100.00
52535;BME280;38443;53.164;5.802;2023-07-30T09:06:06;100902.63;;;18.16;100.00
52535;BME280;38443;53.164;5.802;2023-07-30T09:08:32;100885.50;;;18.15;100.00
52535;BME280;38443;53.164;5.802;2023-07-30T09:11:10;100886.00;;;18.22;100.00
52535;BME280;38443;53.164;5.802;2023-07-30T09:13:40;100889.09;;;18.30;100.00
52535;BME280;38443;53.164;5.802;2023-07-30T09:16:13;100894.81;;;18.25;100.00
52535;BME280;38443;53.164;5.802;2023-07-30T09:18:40;100892.47;;;18.19;100.00
52535;BME280;38443;53.164;5.802;2023-07-30T09:21:06;100898.34;;;18.11;100.00
52535;BME280;38443;53.164;5.802;2023-07-30T09:23:31;100901.25;;;18.08;100.00
52535;BME280;38443;53.164;5.802;2023-07-30T09:26:00;100889.84;;;18.18;100.00
52535;BME280;38443;53.164;5.802;2023-07-30T09:28:31;100901.69;;;18.90;100.00
52535;BME280;38443;53.164;5.802;2023-07-30T09:31:04;100894.16;;;19.51;100.00
52535;BME280;38443;53.164;5.802;2023-07-30T09:33:31;100896.25;;;19.75;100.00
52535;BME280;38443;53.164;5.802;2023-07-30T09:35:56;100906.44;;;19.57;100.00
52535;BME280;38443;53.164;5.802;2023-07-30T09:38:22;100904.47;;;19.31;100.00
52535;BME280;38443;53.164;5.802;2023-07-30T09:40:49;100906.25;;;19.04;100.00
52535;BME280;38443;53.164;5.802;2023-07-30T09:43:15;100915.59;;;18.69;100.00
52535;BME280;38443;53.164;5.802;2023-07-30T09:45:44;100916.19;;;18.74;100.00
52535;BME280;38443;53.164;5.802;2023-07-30T09:48:10;100909.25;;;18.99;100.00
52535;BME280;38443;53.164;5.802;2023-07-30T09:50:36;100921.44;;;19.35;100.00
52535;BME280;38443;53.164;5.802;2023-07-30T09:53:03;100915.38;;;19.59;100.00
52535;BME280;38443;53.164;5.802;2023-07-30T09:55:28;100920.81;;;19.59;100.00
52535;BME280;38443;53.164;5.802;2023-07-30T09:57:54;100921.88;;;19.42;100.00
52535;BME280;38443;53.164;5.802;2023-07-30T10:00:20;100914.88;;;19.52;100.00
52535;BME280;38443;53.164;5.802;2023-07-30T10:02:46;100913.16;;;19.51;100.00
52535;BME280;38443;53.164;5.802;2023-07-30T10:05:17;100926.22;;;19.59;100.00
52535;BME280;38443;53.164;5.802;2023-07-30T10:07:59;100924.88;;;19.93;100.00
52535;BME280;38443;53.164;5.802;2023-07-30T10:10:27;100931.38;;;20.18;100.00
52535;BME280;38443;53.164;5.802;2023-07-30T10:12:55;100936.91;;;20.16;100.00
52535;BME280;38443;53.164;5.802;2023-07-30T10:15:24;100928.31;;;20.09;100.00
52535;BME280;38443;53.164;5.802;2023-07-30T10:17:56;100929.97;;;20.25;100.00
52535;BME280;38443;53.164;5.802;2023-07-30T10:20:26;100928.88;;;20.27;100.00
52535;BME280;38443;53.164;5.802;2023-07-30T10:23:00;100935.63;;;20.35;100.00
52535;BME280;38443;53.164;5.802;2023-07-30T10:25:31;100927.19;;;20.39;100.00
52535;BME280;38443;53.164;5.802;2023-07-30T10:28:07;100940.44;;;20.44;100.00
52535;BME280;38443;53.164;5.802;2023-07-30T10:30:33;100935.00;;;20.57;100.00
52535;BME280;38443;53.164;5.802;2023-07-30T10:33:03;100944.34;;;20.67;100.00
52535;BME280;38443;53.164;5.802;2023-07-30T10:38:21;100944.00;;;20.71;100.00
52535;BME280;38443;53.164;5.802;2023-07-30T10:41:14;100951.66;;;20.52;100.00
52535;BME280;38443;53.164;5.802;2023-07-30T10:43:43;100944.00;;;20.59;100.00
52535;BME280;38443;53.164;5.802;2023-07-30T10:46:12;100939.25;;;20.35;100.00
52535;BME280;38443;53.164;5.802;2023-07-30T10:48:43;100939.50;;;20.18;100.00
52535;BME280;38443;53.164;5.802;2023-07-30T10:51:12;100939.44;;;20.32;100.00
52535;BME280;38443;53.164;5.802;2023-07-30T10:53:38;100941.44;;;20.43;100.00
52535;BME280;38443;53.164;5.802;2023-07-30T10:56:06;100942.41;;;20.42;100.00
52535;BME280;38443;53.164;5.802;2023-07-30T10:58:33;100950.03;;;20.49;100.00
52535;BME280;38443;53.164;5.802;2023-07-30T11:01:02;100952.31;;;20.56;100.00
52535;BME280;38443;53.164;5.802;2023-07-30T11:03:28;100957.03;;;20.66;100.00
52535;BME280;38443;53.164;5.802;2023-07-30T11:05:54;100947.38;;;20.75;100.00
52535;BME280;38443;53.164;5.802;2023-07-30T11:08:31;100943.22;;;20.69;100.00
52535;BME280;38443;53.164;5.802;2023-07-30T11:10:57;100957.63;;;20.44;100.00
52535;BME280;38443;53.164;5.802;2023-07-30T11:13:22;100952.34;;;20.16;100.00
52535;BME280;38443;53.164;5.802;2023-07-30T11:15:48;100962.91;;;19.93;100.00
52535;BME280;38443;53.164;5.802;2023-07-30T11:18:14;100962.38;;;19.73;100.00
52535;BME280;38443;53.164;5.802;2023-07-30T11:20:40;100967.22;;;19.68;100.00
52535;BME280;38443;53.164;5.802;2023-07-30T11:23:25;100977.91;;;19.71;100.00
52535;BME280;38443;53.164;5.802;2023-07-30T11:25:51;100972.84;;;19.80;100.00
52535;BME280;38443;53.164;5.802;2023-07-30T11:28:33;100965.38;;;19.69;100.00
52535;BME280;38443;53.164;5.802;2023-07-30T11:31:04;100968.59;;;19.61;100.00
52535;BME280;38443;53.164;5.802;2023-07-30T11:33:30;100980.63;;;19.71;100.00
52535;BME280;38443;53.164;5.802;2023-07-30T11:35:56;100972.94;;;19.92;100.00
52535;BME280;38443;53.164;5.802;2023-07-30T11:38:26;100969.44;;;20.30;100.00
52535;BME280;38443;53.164;5.802;2023-07-30T11:40:55;100981.75;;;20.36;100.00
52535;BME280;38443;53.164;5.802;2023-07-30T11:43:21;100976.28;;;20.23;100.00
52535;BME280;38443;53.164;5.802;2023-07-30T11:45:47;100974.75;;;20.19;100.00
52535;BME280;38443;53.164;5.802;2023-07-30T11:48:13;100976.03;;;20.13;100.00
52535;BME280;38443;53.164;5.802;2023-07-30T11:50:49;100968.56;;;20.30;100.00
52535;BME280;38443;53.164;5.802;2023-07-30T11:53:16;100985.13;;;20.67;100.00
52535;BME280;38443;53.164;5.802;2023-07-30T11:55:43;100991.66;;;20.77;100.00
52535;BME280;38443;53.164;5.802;2023-07-30T11:58:09;100974.44;;;20.77;100.00
52535;BME280;38443;53.164;5.802;2023-07-30T12:00:39;100994.25;;;20.66;100.00
52535;BME280;38443;53.164;5.802;2023-07-30T12:03:09;100987.38;;;20.60;100.00
52535;BME280;38443;53.164;5.802;2023-07-30T12:05:36;100992.72;;;20.62;100.00
52535;BME280;38443;53.164;5.802;2023-07-30T12:08:03;100993.13;;;20.56;100.00
52535;BME280;38443;53.164;5.802;2023-07-30T12:11:02;100992.97;;;20.44;100.00
52535;BME280;38443;53.164;5.802;2023-07-30T12:13:28;101002.03;;;20.58;100.00
52535;BME280;38443;53.164;5.802;2023-07-30T12:15:54;101010.59;;;20.79;100.00
52535;BME280;38443;53.164;5.802;2023-07-30T12:18:21;101012.06;;;20.57;100.00
52535;BME280;38443;53.164;5.802;2023-07-30T12:20:47;101014.53;;;20.47;100.00
52535;BME280;38443;53.164;5.802;2023-07-30T12:23:13;101006.28;;;20.49;100.00
52535;BME280;38443;53.164;5.802;2023-07-30T12:25:38;101016.78;;;20.68;100.00
52535;BME280;38443;53.164;5.802;2023-07-30T12:28:04;101006.34;;;20.75;100.00
52535;BME280;38443;53.164;5.802;2023-07-30T12:30:29;100999.06;;;20.75;100.00
52535;BME280;38443;53.164;5.802;2023-07-30T12:32:55;101013.63;;;20.74;100.00
52535;BME280;38443;53.164;5.802;2023-07-30T12:35:21;101013.19;;;20.80;100.00
52535;BME280;38443;53.164;5.802;2023-07-30T12:37:46;101012.25;;;20.81;100.00
52535;BME280;38443;53.164;5.802;2023-07-30T12:40:12;101005.16;;;21.04;100.00